Eglin Air Force Auxiliary No 3 Duke, FL

1:58 AM CDT on October 31, 2014 (GMT -0500)
Crestview | Change Station
CLOSE
Current Station
Airport
Location: Crestview,
Elevation: 194 ft
Nearby Weather Stations

Elev 194 ft 30.65 °N, 86.52 °W | Updated 1 hour ago

Clear
Clear
47 °F
Feels Like 47 °F
N
0
Wind Variable Wind from North

Today
High -- | Low -- °F
--% Chance of Precip.
Yesterday
High -- | Low -- °F
Precip. -- in
7:00 AM 5:58 PM
First Quarter, 52% visible
Pressure 30.01 in
Visibility 10.0 miles
Clouds Clear
Dew Point 44 °F
Humidity 87%
Rainfall 0.00 in
Snow Depth Not available.
UV 0 out of 12
Pollen 3.30 out of 12
Air Quality Not available.
Flu Activity Not available.
METAR KEGI 310558Z AUTO 00000KT 10SM CLR 09/07 A3000 RMK AO2 SLP161 T00850065 10148 20079 402240079 58002 $

More Conditions Fewer Conditions

Pressure 30.01 in
Visibility 10.0 miles
Clouds Clear
Dew Point 44 °F
Humidity 87%
Rainfall 0.00 in
Snow Depth Not available.
UV 0 out of 12
Pollen 3.30 out of 12
Air Quality Not available.
Flu Activity Not available.
METAR KEGI 310558Z AUTO 00000KT 10SM CLR 09/07 A3000 RMK AO2 SLP161 T00850065 10148 20079 402240079 58002 $

More Conditions Fewer Conditions

10-Day Weather Forecast

Almanac

Astronomy

Oct. 31, 2014 Rise Set
Actual Time
Civil Twilight
Nautical Twilight
Astronomical Twilight
Moon
Length of Visible Light
Length of Day
Tomorrow will be .
, % of the Moon is Illuminated

Today's Extremes

State Highs State Lows

Community

WunderPhotos

Upload Photos

1,766,571 photos uploaded!

WunderBlogs® & News

Nearby

Air Quality

  Air Quality AQ Index Pollutant
Not available.

Snow Depth

Station Depth Elevation

Earthquake Activity

City Distance Mag. Time & Date
Minimum magnitude displayed is 2.5.

Coastal Water Temperatures

Place Temperature

Nearby Weather Stations